Station History

Weather Underground - logo

Station Historical Data
Daily Summary for March 3, 2018 Units:  English    Metric   Both
« Previous Day
Next Day »
Daily Weekly Monthly Yearly Custom
  High: Low: Average:
Temperature: 57.6 °F 42.7 °F 48.4 °F
Dew Point: 47.5 °F 36.2 °F 43 °F
Humidity: 95 % 46 % 83 %
Wind Speed: 13.8 mph 0.0 mph 1.5 mph
Wind Gust: 13.8 mph - -
Wind:- - SSW
Pressure: 30.17 in 29.98 in -
Precipitation: 0.24 in    
Historical Graphs
 
 
Tabular Data for March 3, 2018
Time Temperature Dew Point Pressure Wind Wind Speed Wind Gust Humidity Rainfall Rate (Hourly)
00:04 48.8 °F 46.9 °F 30.00 in Calm     93 % 0.01 in
00:09 48.8 °F 46.9 °F 30.00 in NNW 1.2 mph   93 % 0.02 in
00:14 49.0 °F 47.1 °F 30.01 in WNW 1.2 mph 1.2 mph 93 % 0.03 in
00:19 49.1 °F 47.2 °F 30.00 in Calm     93 % 0.04 in
00:25 49.2 °F 47.3 °F 30.00 in Calm     93 % 0.04 in
00:30 49.2 °F 47.3 °F 30.00 in Calm     93 % 0.04 in
00:35 49.2 °F 47.3 °F 30.00 in Calm     93 % 0.04 in
00:40 49.3 °F 47.4 °F 30.00 in North 1.0 mph   93 % 0.04 in
00:45 49.2 °F 47.3 °F 30.00 in NNE 1.2 mph 1.2 mph 93 % 0.04 in
00:50 49.1 °F 47.2 °F 30.00 in NNE 1.2 mph   93 % 0.04 in
00:55 49.0 °F 47.1 °F 30.00 in Calm     93 % 0.03 in
01:00 48.9 °F 47.0 °F 30.00 in NNE 1.2 mph 1.2 mph 93 % 0.03 in
01:05 48.7 °F 46.8 °F 30.00 in Calm     93 % 0.03 in
01:10 48.6 °F 46.7 °F 30.00 in ENE 1.2 mph   93 % 0.02 in
01:15 48.5 °F 46.6 °F 30.00 in ENE 1.2 mph   93 % 0.01 in
01:20 48.2 °F 46.3 °F 30.00 in ENE 1.2 mph 1.2 mph 93 % 0.00 in
01:25 48.0 °F 45.8 °F 30.00 in ENE 1.2 mph   92 % 0.00 in
01:30 47.8 °F 45.6 °F 30.00 in Calm     92 % 0.00 in
01:35 47.7 °F 45.5 °F 30.00 in Calm     92 % 0.00 in
01:40 47.7 °F 45.5 °F 29.99 in Calm     92 % 0.00 in
01:45 47.7 °F 45.5 °F 29.99 in ENE 1.2 mph   92 % 0.00 in
01:50 47.7 °F 45.5 °F 29.99 in Calm     92 % 0.00 in
01:56 48.0 °F 45.8 °F 29.99 in Calm     92 % 0.00 in
02:01 48.1 °F 45.9 °F 29.99 in ENE 1.2 mph   92 % 0.00 in
02:06 48.0 °F 45.8 °F 29.99 in Calm   0.8 mph 92 % 0.00 in
02:11 47.9 °F 45.7 °F 29.99 in Calm     92 % 0.00 in
02:16 47.8 °F 45.6 °F 29.99 in Calm     92 % 0.00 in
02:21 47.9 °F 45.7 °F 29.99 in Calm     92 % 0.00 in
02:26 47.9 °F 45.7 °F 29.99 in Calm     92 % 0.00 in
02:31 47.8 °F 45.9 °F 29.99 in Calm     93 % 0.00 in
02:36 47.7 °F 45.8 °F 29.99 in Calm     93 % 0.00 in
02:41 47.8 °F 45.9 °F 29.98 in Calm     93 % 0.00 in
02:46 47.9 °F 46.3 °F 29.98 in Calm     94 % 0.00 in
02:51 47.9 °F 46.3 °F 29.98 in Calm     94 % 0.00 in
02:56 48.0 °F 46.4 °F 29.98 in Calm     94 % 0.00 in
03:01 48.0 °F 46.1 °F 29.98 in Calm     93 % 0.00 in
03:06 47.9 °F 46.0 °F 29.98 in Calm     93 % 0.00 in
03:11 47.9 °F 46.0 °F 29.98 in Calm     93 % 0.00 in
03:16 48.0 °F 46.4 °F 29.98 in Calm     94 % 0.00 in
03:21 48.0 °F 46.4 °F 29.99 in ENE 1.2 mph 1.2 mph 94 % 0.01 in
03:26 47.9 °F 46.3 °F 29.98 in ENE 1.2 mph 1.2 mph 94 % 0.02 in
03:31 47.8 °F 46.2 °F 29.98 in Calm     94 % 0.02 in
03:36 47.8 °F 46.2 °F 29.99 in Calm     94 % 0.02 in
03:41 47.8 °F 46.2 °F 29.99 in Calm     94 % 0.02 in
03:46 47.9 °F 46.3 °F 29.99 in Calm     94 % 0.02 in
03:51 47.9 °F 46.3 °F 29.99 in Calm     94 % 0.02 in
03:56 47.8 °F 46.2 °F 29.99 in Calm   0.1 mph 94 % 0.02 in
04:01 47.8 °F 46.2 °F 30.00 in Calm     94 % 0.02 in
04:06 47.8 °F 46.2 °F 29.99 in ENE 1.2 mph 1.2 mph 94 % 0.02 in
04:11 47.8 °F 46.2 °F 29.99 in ENE 1.2 mph 1.2 mph 94 % 0.03 in
04:16 47.8 °F 46.2 °F 30.00 in ENE 1.2 mph   94 % 0.03 in
04:21 47.8 °F 46.2 °F 30.00 in ENE 1.2 mph 1.2 mph 94 % 0.02 in
04:26 47.8 °F 46.2 °F 30.00 in ENE 1.2 mph   94 % 0.01 in
04:31 47.8 °F 46.2 °F 30.00 in ENE 2.0 mph 2.0 mph 94 % 0.01 in
04:36 47.9 °F 46.5 °F 30.00 in Calm     95 % 0.01 in
04:41 47.9 °F 46.5 °F 30.00 in ENE 1.2 mph   95 % 0.01 in
04:46 47.9 °F 46.3 °F 30.00 in ENE 1.2 mph   94 % 0.01 in
04:51 47.9 °F 46.5 °F 30.00 in ENE 1.2 mph 1.2 mph 95 % 0.01 in
04:56 47.9 °F 46.3 °F 30.00 in ENE 1.2 mph 1.2 mph 94 % 0.02 in
05:01 47.9 °F 46.3 °F 30.00 in ENE 1.2 mph   94 % 0.02 in
05:06 47.8 °F 46.2 °F 30.00 in Calm     94 % 0.02 in
05:11 47.8 °F 46.2 °F 30.00 in Calm     94 % 0.01 in
05:16 47.7 °F 46.1 °F 30.00 in Calm     94 % 0.01 in
05:21 47.7 °F 46.1 °F 30.01 in Calm     94 % 0.01 in
05:26 47.7 °F 46.1 °F 30.00 in Calm     94 % 0.01 in
05:31 47.6 °F 46.0 °F 30.01 in Calm     94 % 0.01 in
05:36 47.5 °F 45.9 °F 30.01 in ENE 1.2 mph 1.2 mph 94 % 0.01 in
05:41 47.5 °F 45.9 °F 30.01 in ENE 1.2 mph   94 % 0.01 in
05:47 47.5 °F 45.9 °F 30.01 in Calm     94 % 0.01 in
05:52 47.5 °F 46.1 °F 30.01 in Calm     95 % 0.01 in
05:57 47.6 °F 46.2 °F 30.01 in Calm     95 % 0.00 in
06:02 47.6 °F 46.2 °F 30.01 in Calm     95 % 0.01 in
06:07 47.6 °F 46.2 °F 30.01 in Calm     95 % 0.01 in
06:12 47.6 °F 46.2 °F 30.02 in Calm     95 % 0.01 in
06:17 47.7 °F 46.3 °F 30.02 in ENE 1.0 mph 1.0 mph 95 % 0.02 in
06:22 47.7 °F 46.3 °F 30.02 in ENE 3.5 mph 3.5 mph 95 % 0.02 in
06:27 47.8 °F 46.4 °F 30.02 in ENE 2.3 mph 2.3 mph 95 % 0.03 in
06:32 47.8 °F 46.4 °F 30.02 in SSE 3.5 mph 3.5 mph 95 % 0.03 in
06:37 47.8 °F 46.4 °F 30.02 in ESE 2.0 mph 2.0 mph 95 % 0.03 in
06:42 47.8 °F 46.4 °F 30.02 in SE 2.3 mph 2.3 mph 95 % 0.03 in
06:47 47.8 °F 46.4 °F 30.02 in SSE 3.5 mph 3.5 mph 95 % 0.03 in
06:52 47.8 °F 46.4 °F 30.03 in ESE 2.3 mph 2.3 mph 95 % 0.03 in
06:57 47.9 °F 46.5 °F 30.03 in ESE 2.3 mph 2.3 mph 95 % 0.04 in
07:02 47.9 °F 46.5 °F 30.03 in ESE 1.2 mph 1.2 mph 95 % 0.03 in
07:07 47.9 °F 46.5 °F 30.04 in ESE 1.2 mph 1.2 mph 95 % 0.03 in
07:12 47.9 °F 46.5 °F 30.04 in ESE 2.3 mph 2.3 mph 95 % 0.03 in
07:17 48.0 °F 46.6 °F 30.04 in ESE 1.0 mph   95 % 0.03 in
07:22 48.0 °F 46.6 °F 30.04 in Calm     95 % 0.04 in
07:27 48.1 °F 46.7 °F 30.04 in Calm     95 % 0.03 in
07:32 48.1 °F 46.7 °F 30.05 in North 1.2 mph   95 % 0.03 in
07:37 47.8 °F 46.4 °F 30.05 in NW 6.9 mph 6.9 mph 95 % 0.03 in
07:42 46.2 °F 44.0 °F 30.06 in NW 3.5 mph 3.5 mph 92 % 0.03 in
07:47 45.5 °F 43.3 °F 30.06 in NW 8.1 mph 8.1 mph 92 % 0.04 in
07:52 45.0 °F 42.8 °F 30.06 in NNW 3.5 mph 3.5 mph 92 % 0.04 in
07:57 44.8 °F 42.6 °F 30.06 in NW 3.5 mph 3.5 mph 92 % 0.03 in
08:02 44.8 °F 42.9 °F 30.06 in NW 2.3 mph 2.3 mph 93 % 0.03 in
08:07 44.7 °F 42.8 °F 30.06 in NW 2.3 mph 2.3 mph 93 % 0.04 in
08:12 44.7 °F 42.8 °F 30.06 in NW 2.3 mph 2.3 mph 93 % 0.04 in
08:17 44.7 °F 42.8 °F 30.06 in NNW 3.5 mph 3.5 mph 93 % 0.03 in
08:22 44.7 °F 42.8 °F 30.07 in NW 1.2 mph 1.2 mph 93 % 0.03 in
08:27 44.8 °F 42.9 °F 30.07 in NW 2.3 mph   93 % 0.03 in
08:32 45.0 °F 43.1 °F 30.07 in Calm   0.1 mph 93 % 0.03 in
08:37 45.2 °F 43.3 °F 30.07 in Calm     93 % 0.03 in
08:42 45.5 °F 43.6 °F 30.07 in Calm     93 % 0.03 in
08:47 45.6 °F 43.7 °F 30.07 in NW 1.2 mph   93 % 0.02 in
08:52 45.9 °F 44.0 °F 30.07 in NW 2.3 mph 2.3 mph 93 % 0.02 in
08:57 46.1 °F 44.2 °F 30.07 in Calm     93 % 0.02 in
09:02 46.2 °F 44.3 °F 30.08 in Calm     93 % 0.02 in
09:07 46.4 °F 44.5 °F 30.08 in Calm     93 % 0.02 in
09:12 46.7 °F 44.8 °F 30.08 in Calm   0.1 mph 93 % 0.02 in
09:17 46.9 °F 45.0 °F 30.07 in East 1.2 mph 1.2 mph 93 % 0.02 in
09:22 47.0 °F 45.1 °F 30.08 in East 1.2 mph   93 % 0.01 in
09:27 47.2 °F 45.3 °F 30.08 in East 1.2 mph 1.2 mph 93 % 0.01 in
09:32 47.4 °F 45.2 °F 30.07 in WNW 1.2 mph 1.2 mph 92 % 0.01 in
09:37 48.1 °F 46.2 °F 30.07 in NW 3.0 mph 3.0 mph 93 % 0.01 in
09:42 48.6 °F 46.4 °F 30.07 in SE 2.3 mph 2.3 mph 92 % 0.01 in
09:47 49.5 °F 47.3 °F 30.08 in SE 1.2 mph 1.2 mph 92 % 0.01 in
09:52 50.0 °F 46.9 °F 30.08 in NW 3.5 mph 3.5 mph 89 % 0.01 in
09:57 50.6 °F 47.5 °F 30.08 in NE 1.2 mph 1.2 mph 89 % 0.01 in
10:02 51.3 °F 47.3 °F 30.08 in NW 3.0 mph 3.0 mph 86 % 0.01 in
10:07 51.3 °F 46.3 °F 30.08 in SE 3.5 mph 3.5 mph 83 % 0.00 in
10:12 51.4 °F 44.8 °F 30.08 in NW 3.5 mph 3.5 mph 78 % 0.00 in
10:18 51.2 °F 45.2 °F 30.09 in NW 3.5 mph 3.5 mph 80 % 0.00 in
10:23 51.0 °F 44.4 °F 30.09 in WNW 4.6 mph 4.6 mph 78 % 0.00 in
10:28 50.9 °F 43.9 °F 30.09 in NW 1.2 mph   77 % 0.00 in
10:33 50.9 °F 43.9 °F 30.09 in NW 3.5 mph 3.5 mph 77 % 0.00 in
10:38 50.8 °F 44.5 °F 30.09 in NW 2.3 mph 2.3 mph 79 % 0.00 in
10:43 50.8 °F 43.5 °F 30.09 in NNW 3.5 mph 3.5 mph 76 % 0.00 in
10:48 50.7 °F 43.4 °F 30.09 in NW 2.3 mph 2.3 mph 76 % 0.00 in
10:53 50.9 °F 43.3 °F 30.09 in NW 3.0 mph 3.0 mph 75 % 0.00 in
10:58 50.8 °F 42.8 °F 30.09 in WNW 3.5 mph 3.5 mph 74 % 0.00 in
11:03 50.8 °F 43.2 °F 30.09 in NW 4.0 mph 4.0 mph 75 % 0.00 in
11:08 51.0 °F 43.4 °F 30.09 in NW 2.3 mph 2.3 mph 75 % 0.00 in
11:13 50.9 °F 42.9 °F 30.09 in NW 3.5 mph 3.5 mph 74 % 0.00 in
11:18 50.9 °F 42.9 °F 30.09 in NW 2.3 mph 2.3 mph 74 % 0.00 in
11:23 51.0 °F 43.4 °F 30.09 in NW 1.2 mph 1.2 mph 75 % 0.00 in
11:28 51.2 °F 43.5 °F 30.09 in WNW 3.5 mph 3.5 mph 75 % 0.00 in
11:33 51.4 °F 44.1 °F 30.09 in NW 3.5 mph 3.5 mph 76 % 0.00 in
11:38 52.1 °F 44.1 °F 30.09 in WNW 3.5 mph 3.5 mph 74 % 0.00 in
11:43 52.2 °F 42.3 °F 30.09 in NW 4.6 mph 4.6 mph 69 % 0.00 in
11:48 52.6 °F 42.7 °F 30.08 in NNW 4.0 mph 4.0 mph 69 % 0.00 in
11:53 52.9 °F 43.0 °F 30.08 in NW 3.5 mph 3.5 mph 69 % 0.00 in
11:58 53.2 °F 42.9 °F 30.08 in NNW 2.3 mph 2.3 mph 68 % 0.00 in
12:03 53.2 °F 42.9 °F 30.08 in NW 3.5 mph 3.5 mph 68 % 0.00 in
12:08 53.0 °F 41.5 °F 30.08 in WNW 3.5 mph 3.5 mph 65 % 0.00 in
12:13 52.8 °F 42.5 °F 30.08 in NNW 3.5 mph 3.5 mph 68 % 0.00 in
12:18 53.0 °F 43.5 °F 30.07 in NW 1.2 mph   70 % 0.00 in
12:23 53.2 °F 42.5 °F 30.07 in West 3.5 mph 3.5 mph 67 % 0.00 in
12:28 53.3 °F 43.0 °F 30.07 in WNW 1.2 mph 1.2 mph 68 % 0.00 in
12:33 53.6 °F 42.9 °F 30.07 in SE 1.2 mph 1.2 mph 67 % 0.00 in
12:38 53.6 °F 42.1 °F 30.07 in Calm     65 % 0.00 in
12:44 53.7 °F 42.2 °F 30.06 in Calm     65 % 0.00 in
12:49 53.7 °F 42.2 °F 30.06 in North 1.2 mph 1.2 mph 65 % 0.00 in
12:54 53.9 °F 42.4 °F 30.06 in North 1.2 mph 1.2 mph 65 % 0.00 in
12:59 53.9 °F 42.4 °F 30.05 in NW 2.3 mph 2.3 mph 65 % 0.00 in
13:04 53.5 °F 40.8 °F 30.05 in NW 2.3 mph 2.3 mph 62 % 0.00 in
13:09 53.3 °F 40.2 °F 30.05 in NW 3.5 mph 3.5 mph 61 % 0.00 in
13:14 53.3 °F 40.6 °F 30.05 in NE 2.3 mph 2.3 mph 62 % 0.00 in
13:19 53.7 °F 41.0 °F 30.04 in NW 3.5 mph 3.5 mph 62 % 0.00 in
13:24 53.8 °F 40.7 °F 30.04 in NW 3.5 mph 3.5 mph 61 % 0.00 in
13:29 54.0 °F 41.3 °F 30.04 in ESE 2.3 mph 2.3 mph 62 % 0.00 in
13:34 54.3 °F 40.7 °F 30.04 in NW 2.3 mph 2.3 mph 60 % 0.00 in
13:39 54.3 °F 40.7 °F 30.04 in Calm     60 % 0.00 in
13:44 55.3 °F 40.8 °F 30.04 in NW 2.3 mph 2.3 mph 58 % 0.00 in
13:49 55.9 °F 40.0 °F 30.04 in NW 3.5 mph 3.5 mph 55 % 0.00 in
13:54 55.5 °F 39.6 °F 30.04 in East 1.2 mph 1.2 mph 55 % 0.00 in
13:59 55.7 °F 39.8 °F 30.03 in SE 1.2 mph   55 % 0.00 in
14:04 55.9 °F 39.0 °F 30.03 in ENE 1.2 mph 1.2 mph 53 % 0.00 in
14:09 55.9 °F 38.5 °F 30.03 in NW 2.3 mph 2.3 mph 52 % 0.00 in
14:14 56.3 °F 38.9 °F 30.03 in SE 2.3 mph 2.3 mph 52 % 0.00 in
14:19 56.7 °F 39.3 °F 30.03 in NE 3.5 mph 3.5 mph 52 % 0.00 in
14:24 56.5 °F 38.6 °F 30.03 in WSW 3.5 mph   51 % 0.00 in
14:29 56.4 °F 37.5 °F 30.03 in WNW 2.3 mph 2.3 mph 49 % 0.00 in
14:34 56.3 °F 38.4 °F 30.03 in WNW 1.2 mph 1.2 mph 51 % 0.00 in
14:39 56.6 °F 39.2 °F 30.03 in East 1.2 mph 1.2 mph 52 % 0.00 in
14:45 57.4 °F 39.9 °F 30.02 in SE 2.3 mph 2.3 mph 52 % 0.00 in
14:50 57.4 °F 39.4 °F 30.02 in SSE 1.2 mph 1.2 mph 51 % 0.00 in
14:55 57.5 °F 39.5 °F 30.02 in SSE 3.5 mph 3.5 mph 51 % 0.00 in
15:00 57.3 °F 38.8 °F 30.02 in NW 1.2 mph 1.2 mph 50 % 0.00 in
15:05 57.4 °F 37.3 °F 30.02 in NNW 1.2 mph   47 % 0.00 in
15:10 57.4 °F 37.3 °F 30.02 in NE 1.2 mph 1.2 mph 47 % 0.00 in
15:15 57.5 °F 37.9 °F 30.01 in SE 1.2 mph 1.2 mph 48 % 0.00 in
15:20 57.6 °F 37.5 °F 30.01 in SE 3.0 mph 3.0 mph 47 % 0.00 in
15:25 57.5 °F 37.4 °F 30.01 in SE 2.0 mph 2.0 mph 47 % 0.00 in
15:30 57.1 °F 37.0 °F 30.01 in SE 2.3 mph   47 % 0.00 in
15:35 56.8 °F 36.2 °F 30.01 in NW 2.0 mph 2.0 mph 46 % 0.00 in
15:40 56.3 °F 36.3 °F 30.01 in Calm     47 % 0.00 in
15:45 56.0 °F 37.1 °F 30.01 in Calm     49 % 0.00 in
15:50 55.8 °F 36.9 °F 30.01 in Calm     49 % 0.00 in
15:55 55.8 °F 36.9 °F 30.00 in Calm     49 % 0.00 in
16:00 55.8 °F 37.4 °F 30.01 in Calm   0.2 mph 50 % 0.00 in
16:05 55.7 °F 37.3 °F 30.00 in Calm     50 % 0.00 in
16:10 55.6 °F 37.7 °F 30.01 in SSE 1.2 mph   51 % 0.00 in
16:15 55.5 °F 37.1 °F 30.01 in Calm     50 % 0.00 in
16:21 55.3 °F 37.0 °F 30.01 in Calm     50 % 0.00 in
16:26 55.3 °F 37.5 °F 30.01 in Calm     51 % 0.00 in
16:31 55.1 °F 39.2 °F 30.02 in NW 3.0 mph 3.0 mph 55 % 0.00 in
16:36 53.2 °F 40.1 °F 30.02 in WNW 8.1 mph 8.1 mph 61 % 0.00 in
16:41 51.1 °F 40.5 °F 30.02 in WNW 12.7 mph 12.7 mph 67 % 0.00 in
16:46 49.7 °F 41.0 °F 30.02 in West 13.8 mph 13.8 mph 72 % 0.00 in
16:51 48.6 °F 41.7 °F 30.03 in NW 6.9 mph 6.9 mph 77 % 0.00 in
16:56 47.5 °F 41.6 °F 30.03 in WNW 8.1 mph 8.1 mph 80 % 0.00 in
17:01 46.7 °F 41.8 °F 30.04 in NW 8.0 mph 8.0 mph 83 % 0.00 in
17:06 46.2 °F 41.9 °F 30.05 in NNW 6.0 mph 6.0 mph 85 % 0.00 in
17:11 46.1 °F 41.8 °F 30.05 in WNW 5.8 mph 5.8 mph 85 % 0.00 in
17:16 45.9 °F 41.3 °F 30.05 in North 5.8 mph 5.8 mph 84 % 0.02 in
17:21 45.7 °F 40.5 °F 30.05 in NW 3.5 mph 3.5 mph 82 % 0.03 in
17:26 45.7 °F 40.5 °F 30.05 in Calm     82 % 0.05 in
17:31 45.5 °F 40.9 °F 30.05 in NW 4.0 mph 4.0 mph 84 % 0.05 in
17:36 45.5 °F 41.9 °F 30.06 in NNW 4.0 mph 4.0 mph 87 % 0.05 in
17:41 45.5 °F 42.4 °F 30.07 in NNW 3.0 mph 3.0 mph 89 % 0.05 in
17:46 45.4 °F 42.3 °F 30.07 in NW 3.5 mph 3.5 mph 89 % 0.05 in
17:51 45.5 °F 42.7 °F 30.06 in NW 1.2 mph 1.2 mph 90 % 0.05 in
17:56 45.5 °F 42.7 °F 30.06 in NW 2.3 mph 2.3 mph 90 % 0.05 in
18:01 45.5 °F 42.4 °F 30.06 in WNW 2.3 mph 2.3 mph 89 % 0.05 in
18:06 45.4 °F 42.1 °F 30.06 in WNW 3.5 mph 3.5 mph 88 % 0.05 in
18:11 45.4 °F 42.1 °F 30.06 in Calm     88 % 0.05 in
18:16 45.3 °F 42.0 °F 30.06 in WNW 1.2 mph 1.2 mph 88 % 0.03 in
18:21 45.2 °F 41.6 °F 30.06 in ESE 2.3 mph 2.3 mph 87 % 0.02 in
18:26 45.1 °F 41.8 °F 30.07 in East 2.3 mph 2.3 mph 88 % 0.00 in
18:31 44.9 °F 41.6 °F 30.07 in ENE 3.5 mph 3.5 mph 88 % 0.00 in
18:36 44.8 °F 41.5 °F 30.06 in ENE 2.3 mph 2.3 mph 88 % 0.00 in
18:41 44.8 °F 41.5 °F 30.07 in NNE 1.2 mph 1.2 mph 88 % 0.00 in
18:46 44.8 °F 41.5 °F 30.06 in SE 1.2 mph 1.2 mph 88 % 0.00 in
18:51 44.8 °F 40.9 °F 30.06 in Calm   0.4 mph 86 % 0.00 in
18:56 44.9 °F 41.0 °F 30.07 in ESE 1.2 mph 1.2 mph 86 % 0.00 in
19:01 44.9 °F 40.7 °F 30.07 in NE 1.2 mph 1.2 mph 85 % 0.00 in
19:06 44.8 °F 40.6 °F 30.08 in ESE 3.5 mph 3.5 mph 85 % 0.00 in
19:11 44.8 °F 40.6 °F 30.08 in East 2.3 mph 2.3 mph 85 % 0.00 in
19:16 44.8 °F 40.9 °F 30.08 in Calm     86 % 0.00 in
19:21 44.6 °F 40.7 °F 30.08 in Calm     86 % 0.00 in
19:26 44.3 °F 40.7 °F 30.08 in Calm     87 % 0.00 in
19:31 44.0 °F 40.4 °F 30.08 in Calm     87 % 0.00 in
19:36 43.7 °F 40.4 °F 30.09 in East 1.2 mph   88 % 0.00 in
19:41 43.4 °F 40.4 °F 30.09 in Calm     89 % 0.00 in
19:46 43.2 °F 40.2 °F 30.09 in Calm     89 % 0.00 in
19:51 43.0 °F 40.3 °F 30.09 in Calm     90 % 0.00 in
19:56 42.9 °F 40.2 °F 30.09 in Calm     90 % 0.00 in
20:01 42.7 °F 40.3 °F 30.10 in East 1.2 mph 1.2 mph 91 % 0.00 in
20:06 42.7 °F 40.3 °F 30.10 in Calm     91 % 0.00 in
20:11 42.8 °F 40.4 °F 30.10 in Calm     91 % 0.00 in
20:16 42.8 °F 40.4 °F 30.11 in Calm     91 % 0.00 in
20:21 43.1 °F 40.7 °F 30.11 in Calm     91 % 0.00 in
20:26 43.2 °F 40.8 °F 30.11 in Calm     91 % 0.00 in
20:31 43.2 °F 40.8 °F 30.11 in Calm     91 % 0.00 in
20:36 43.2 °F 40.8 °F 30.12 in Calm     91 % 0.00 in
20:41 43.3 °F 41.1 °F 30.12 in East 1.2 mph 1.2 mph 92 % 0.00 in
20:46 43.4 °F 41.2 °F 30.12 in East 1.2 mph   92 % 0.00 in
20:51 43.4 °F 41.2 °F 30.12 in NW 1.2 mph 1.2 mph 92 % 0.00 in
20:56 43.4 °F 41.2 °F 30.13 in Calm     92 % 0.00 in
21:01 43.4 °F 41.2 °F 30.13 in Calm     92 % 0.00 in
21:06 43.4 °F 41.2 °F 30.13 in Calm     92 % 0.00 in
21:11 43.3 °F 41.1 °F 30.13 in Calm     92 % 0.00 in
21:16 43.2 °F 41.0 °F 30.13 in Calm     92 % 0.00 in
21:21 43.1 °F 40.7 °F 30.13 in Calm     91 % 0.00 in
21:26 43.1 °F 40.7 °F 30.14 in Calm     91 % 0.00 in
21:31 43.2 °F 40.8 °F 30.14 in WNW 1.2 mph 1.2 mph 91 % 0.00 in
21:36 43.3 °F 40.8 °F 30.14 in Calm     91 % 0.00 in
21:42 43.4 °F 40.9 °F 30.14 in Calm     91 % 0.00 in
21:47 43.4 °F 40.9 °F 30.15 in WNW 1.2 mph   91 % 0.00 in
21:52 43.4 °F 40.9 °F 30.15 in WNW 1.2 mph 1.2 mph 91 % 0.00 in
21:57 43.4 °F 41.2 °F 30.15 in Calm   0.5 mph 92 % 0.00 in
22:02 43.5 °F 41.3 °F 30.15 in Calm     92 % 0.00 in
22:07 43.6 °F 41.4 °F 30.15 in Calm     92 % 0.00 in
22:12 43.7 °F 41.5 °F 30.16 in Calm     92 % 0.00 in
22:17 43.8 °F 41.6 °F 30.16 in Calm     92 % 0.01 in
22:22 43.8 °F 41.6 °F 30.16 in Calm     92 % 0.01 in
22:27 43.9 °F 41.7 °F 30.16 in SE 1.2 mph 1.2 mph 92 % 0.01 in
22:32 44.0 °F 41.5 °F 30.16 in NNW 1.2 mph   91 % 0.01 in
22:37 44.1 °F 41.6 °F 30.16 in NW 1.2 mph 1.2 mph 91 % 0.01 in
22:42 44.1 °F 41.6 °F 30.16 in Calm     91 % 0.01 in
22:47 44.0 °F 41.5 °F 30.16 in Calm     91 % 0.01 in
22:52 43.8 °F 41.1 °F 30.16 in East 2.3 mph 2.3 mph 90 % 0.02 in
22:57 43.7 °F 41.0 °F 30.16 in Calm     90 % 0.02 in
23:02 43.6 °F 40.9 °F 30.16 in Calm     90 % 0.02 in
23:07 43.5 °F 40.8 °F 30.16 in East 1.2 mph   90 % 0.02 in
23:12 43.4 °F 40.7 °F 30.16 in Calm     90 % 0.02 in
23:17 43.4 °F 40.7 °F 30.16 in East 1.0 mph   90 % 0.01 in
23:22 43.5 °F 41.0 °F 30.16 in Calm     91 % 0.01 in
23:27 43.5 °F 40.8 °F 30.17 in NW 1.2 mph 1.2 mph 90 % 0.01 in
23:32 43.5 °F 40.8 °F 30.17 in NW 1.2 mph 1.2 mph 90 % 0.01 in
23:37 43.5 °F 40.8 °F 30.17 in Calm     90 % 0.01 in
23:42 43.4 °F 40.9 °F 30.17 in NW 2.3 mph 2.3 mph 91 % 0.01 in
23:47 43.4 °F 40.9 °F 30.17 in WNW 1.2 mph 1.2 mph 91 % 0.01 in
23:52 43.3 °F 40.8 °F 30.17 in WNW 1.2 mph 1.2 mph 91 % 0.00 in
23:57 43.4 °F 41.2 °F 30.17 in NNW 2.3 mph 2.3 mph 92 % 0.00 in
Park Place, Exeter, Tulare County, California, USA
Compliments of Weather Underground - 2.75 mb